Etusivu
METAR-TAF:

METAR-TAF

Lentoasemat :

Illizi, Algeria

Leveyspiiri: 26-30N, Pituuspiiri: 008-25E, korkeus merenpinnasta: 558 m

Tämänhetkinen sää

Tämä raportti tehtiin 12 minuuttia sitten, kello 22.00 UTC
Tuuli 5 kn idästä/kaakosta
Lämpötila 33°C
Kosteus 13%
Ilmanpaine 1016 hPa
Näkyvyys 10 km tai enemmän
ei pilviä alle 1500 m:ssä eikä cumulonimbus-pilviä

METAR: DAAP 172200Z 12005KT CAVOK 33/01 Q1016

Aika: 23:12 (22:12 UTC)

Sääennuste

Tämä raportti tehtiin 2 tuntia ja 12 minuuttia sitten, kello 20.00 UTC
Ennuste voimassa 17. päivästä klo 21 UTC - 18. päivään klo 06 UTC
Tuuli 8 kn idästä
Näkyvyys 10 km tai enemmän
ei pilviä alle 1500 m:ssä eikä cumulonimbus-pilviä

TAF: DAAP 172000Z 1721/1806 08008KT CAVOK

Säähavainnot ja -ennusteet yli 4000 lentoasemalta (METAR- ja TAF-raportit).

Käytössä olevat sääasemat on merkitty karttaan keltaisilla ja punaisilla pisteillä.

Aseta hiiri pisteen päälle nähdäksesi sääaseman nimen.

Klikkaa sitten nähdäksesi säähavainnot ja -ennusteet.

Kartan vaihtaminen: klikkaa mustalla rastilla varustettuja vihreitä pisteitä, niin voit zoomata sisään; viivalla varustettua vihreää pistettä, niin voit zoomata ulos tai vihreitä nuolia, niin pääset viereisille kartoille.


METAR-TAF: